Airfield :
LOGIN :

Register | Disclaimer

   EN    FR    IT 

 










Legend :    VFR   Marginal VFR   IFR   Intensive IFR   Very Intensive IFR
Visi :
Ceiling :
>= 8 km
>= 3000ft
5 to 8 km
1000 to 3000 ft
1500m to 5 km
500 to 1000 ft
800 to 1500m
200 to 500 ft
< 800m
< 200 ft
Symbols :   Thunderstorms  Fog  Heavy snow  Heavy precipitations  Wind > 20 kt
SIGMETs :     Misc.  Thunderstorms  Icing  Turbulence  Mountain Waves  Volcanic Ashes







- Airport Elevation : 325 ft
- IATA code : BES
- Download approach charts


LFRB - Brest

CURRENT METAR :
  • 181830Z AUTO 23003KT CAVOK 06/05 Q1009 TEMPO 4000 SHRA FEW015TCU BKN025

EXPIRED METARs :
  • 181800Z AUTO VRB02KT 9999 FEW020/// SCT043/// OVC070/// ///TCU 07/05 Q1009 BECMG SCT020 SCT030
  • 181730Z AUTO 22005KT 9999 SCT023 SCT033 BKN040 08/06 Q1009 TEMPO 4000 SHRA SCT012CB BKN015 BECMG 16014KT
  • 181700Z AUTO 23005KT CAVOK 08/06 Q1009 TEMPO 4000 SHRA SCT012CB BKN015 BECMG 16014KT
  • 181630Z AUTO 21005KT 9999 FEW019 SCT048 09/07 Q1009 TEMPO 4000 SHRA SCT012CB BKN015
  • 181600Z AUTO 22007KT 9999 FEW009/// BKN019/// BKN029/// ///TCU 09/08 Q1009 BECMG 16014KT BKN015

TAF TAF LFRB
Valid from the 18 at 18:00 until the 20 at 00:00 UTC


181700Z 1818/1924 VRB05KT 9999 SCT020 SCT030
TEMPO 1820/1912 4000 SHRA FEW015TCU BKN025
ATIS : +33 2 98 32 02 71
No reported NOTAMs for that airfield.



MET'MAP, your aeronautical weather chart ! - Copyright ORBIFLY December 2007 - Disclaimer

ORBIFLY MET'MAP TEAM :

Programming & Development : Alexandra Zaïnal
Concept & Development : Baudouin d'Aumeries
Co-Development & Prog : Marc-Olivier Méhu
Technical & hardware support : Manuel Goepfert

Contact : metmap@orbifly.com




SOURCES & CREDITS :

   NOAA